createdAt,value
2022-10-17T00:00:56.383Z,21.10
2022-10-17T00:03:23.252Z,20.17
2022-10-17T00:05:50.703Z,21.40
2022-10-17T00:08:19.598Z,22.55
2022-10-17T00:10:57.781Z,22.70
2022-10-17T00:13:26.098Z,23.52
2022-10-17T00:15:53.582Z,21.45
2022-10-17T00:18:20.649Z,22.33
2022-10-17T00:20:47.572Z,22.17
2022-10-17T00:23:14.444Z,21.65
2022-10-17T00:25:41.386Z,20.08
2022-10-17T00:28:13.158Z,20.95
2022-10-17T00:30:40.305Z,19.00
2022-10-17T00:33:07.856Z,17.58
2022-10-17T00:35:34.737Z,19.30
2022-10-17T00:38:01.629Z,23.02
2022-10-17T00:40:28.568Z,21.08
2022-10-17T00:42:55.527Z,21.98
2022-10-17T00:45:28.449Z,18.90
2022-10-17T00:48:04.075Z,23.67
2022-10-17T00:50:31.994Z,21.58
2022-10-17T00:53:03.115Z,23.45
2022-10-17T00:55:35.858Z,18.27
2022-10-17T00:58:05.234Z,22.00
2022-10-17T01:00:32.572Z,17.98
2022-10-17T01:02:59.993Z,18.45
2022-10-17T01:05:27.409Z,18.17
2022-10-17T01:07:55.666Z,21.75
2022-10-17T01:10:30.130Z,25.65
2022-10-17T01:13:26.425Z,21.83
2022-10-17T01:16:40.028Z,19.92
2022-10-17T01:19:39.229Z,21.02
2022-10-17T01:22:36.073Z,22.70
2022-10-17T01:25:37.366Z,21.02
2022-10-17T01:28:35.298Z,21.80
2022-10-17T01:31:15.859Z,21.98
2022-10-17T01:34:04.034Z,25.98
2022-10-17T01:36:52.315Z,23.85
2022-10-17T01:39:45.324Z,21.10
2022-10-17T01:42:31.069Z,21.00
2022-10-17T01:45:23.209Z,21.67
2022-10-17T01:47:53.137Z,22.55
2022-10-17T01:50:38.229Z,20.48
2022-10-17T01:53:47.037Z,22.58
2022-10-17T01:56:15.818Z,21.25
2022-10-17T01:58:51.061Z,18.27
2022-10-17T02:01:19.998Z,19.67
2022-10-17T02:03:49.964Z,20.95
2022-10-17T02:06:16.986Z,20.40
2022-10-17T02:08:49.334Z,21.25
2022-10-17T02:11:25.443Z,21.05
2022-10-17T02:14:41.519Z,21.27
2022-10-17T02:17:14.914Z,22.60
2022-10-17T02:20:32.088Z,22.42
2022-10-17T02:23:11.221Z,21.08
2022-10-17T02:26:10.191Z,21.83
2022-10-17T02:28:51.530Z,22.52
2022-10-17T02:31:25.871Z,23.17
2022-10-17T02:34:02.032Z,21.92
2022-10-17T02:36:36.752Z,18.20
2022-10-17T02:39:05.311Z,21.55
2022-10-17T02:41:34.169Z,18.70
2022-10-17T02:44:04.310Z,19.13
2022-10-17T02:46:32.949Z,21.05
2022-10-17T02:49:08.787Z,21.15
2022-10-17T02:52:04.301Z,20.10
2022-10-17T02:54:37.175Z,19.77
2022-10-17T02:57:36.076Z,21.27
2022-10-17T03:00:07.979Z,25.15
2022-10-17T03:02:52.816Z,23.13
2022-10-17T03:05:26.067Z,21.42
2022-10-17T03:07:54.217Z,23.02
2022-10-17T03:10:22.214Z,20.73
2022-10-17T03:12:49.549Z,24.02
2022-10-17T03:15:16.611Z,22.63
2022-10-17T03:17:46.869Z,23.23
2022-10-17T03:20:13.994Z,23.20
2022-10-17T03:22:40.890Z,22.60
2022-10-17T03:25:08.217Z,25.13
2022-10-17T03:27:36.305Z,21.30
2022-10-17T03:30:04.042Z,20.23
2022-10-17T03:32:34.569Z,20.33
2022-10-17T03:35:01.911Z,20.05
2022-10-17T03:37:29.127Z,20.63
2022-10-17T03:39:56.289Z,19.23
2022-10-17T03:42:23.247Z,21.55
2022-10-17T03:44:50.182Z,21.05
2022-10-17T03:47:17.740Z,23.67
2022-10-17T03:49:45.834Z,21.13
2022-10-17T03:52:13.528Z,21.90
2022-10-17T03:54:40.631Z,23.10
2022-10-17T03:57:07.686Z,20.25
2022-10-17T03:59:35.959Z,20.40
2022-10-17T04:02:07.696Z,20.52
2022-10-17T04:04:35.681Z,25.77
2022-10-17T04:07:03.510Z,24.05
2022-10-17T04:09:30.758Z,21.55
2022-10-17T04:12:06.964Z,24.20
2022-10-17T04:14:37.878Z,22.10
2022-10-17T04:17:04.945Z,23.27
2022-10-17T04:19:33.477Z,23.30
2022-10-17T04:22:00.363Z,24.48
2022-10-17T04:24:29.157Z,20.98
2022-10-17T04:27:03.896Z,29.55
2022-10-17T04:29:33.572Z,24.73
2022-10-17T04:32:15.630Z,26.35
2022-10-17T04:34:57.733Z,21.75
2022-10-17T04:37:24.746Z,25.50
2022-10-17T04:39:54.140Z,28.33
2022-10-17T04:42:21.089Z,23.80
2022-10-17T04:44:49.857Z,25.85
2022-10-17T04:47:18.250Z,22.60
2022-10-17T04:49:45.163Z,25.73
2022-10-17T04:52:14.236Z,27.98
2022-10-17T04:54:43.761Z,24.20
2022-10-17T04:57:13.599Z,26.25
2022-10-17T04:59:42.709Z,25.17
2022-10-17T05:02:27.256Z,23.98
2022-10-17T05:04:55.215Z,24.38
2022-10-17T05:07:22.433Z,26.63
2022-10-17T05:10:02.212Z,30.13
2022-10-17T05:12:30.457Z,23.48
2022-10-17T05:14:57.587Z,24.20
2022-10-17T05:17:26.335Z,22.75
2022-10-17T05:19:54.645Z,24.58
2022-10-17T05:22:22.608Z,23.27
2022-10-17T05:24:49.574Z,25.25
2022-10-17T05:27:16.558Z,29.73
2022-10-17T05:29:43.693Z,25.88
2022-10-17T05:32:18.170Z,23.45
2022-10-17T05:34:45.540Z,21.55
2022-10-17T05:37:12.427Z,23.88
2022-10-17T05:39:41.822Z,23.70
2022-10-17T05:42:10.473Z,25.95
2022-10-17T05:44:39.289Z,27.38
2022-10-17T05:47:08.943Z,27.48
2022-10-17T05:49:52.466Z,27.88
2022-10-17T05:52:25.957Z,27.45
2022-10-17T05:55:13.555Z,26.65
2022-10-17T05:57:40.636Z,22.27
2022-10-17T06:00:13.295Z,33.35
2022-10-17T06:02:46.090Z,28.55
2022-10-17T06:05:15.715Z,27.42
2022-10-17T06:07:43.750Z,28.85
2022-10-17T06:10:12.972Z,32.80
2022-10-17T06:12:40.028Z,33.75
2022-10-17T06:15:07.843Z,31.15
2022-10-17T06:17:35.712Z,32.67
2022-10-17T06:20:02.630Z,31.38
2022-10-17T06:22:29.822Z,31.67
2022-10-17T06:24:57.444Z,32.63
2022-10-17T06:27:24.472Z,35.50
2022-10-17T06:29:51.377Z,37.17
2022-10-17T06:32:18.538Z,38.55
2022-10-17T06:34:46.969Z,37.25
2022-10-17T06:37:14.999Z,32.60
2022-10-17T06:39:42.814Z,36.22
2022-10-17T06:42:16.133Z,33.35
2022-10-17T06:45:15.172Z,32.97
2022-10-17T06:47:46.849Z,31.13
2022-10-17T06:50:35.420Z,37.42
2022-10-17T06:53:15.439Z,34.42
2022-10-17T06:55:53.995Z,35.13
2022-10-17T06:58:40.458Z,35.55
2022-10-17T07:01:31.745Z,32.25
2022-10-17T07:04:00.401Z,32.53
2022-10-17T07:06:28.745Z,30.80
2022-10-17T07:08:58.942Z,30.45
2022-10-17T07:11:25.946Z,27.45
2022-10-17T07:13:53.132Z,28.00
2022-10-17T07:16:21.640Z,31.92
2022-10-17T07:18:55.533Z,32.38
2022-10-17T07:21:22.625Z,32.97
2022-10-17T07:23:49.736Z,31.23
2022-10-17T07:26:18.613Z,37.50
2022-10-17T07:28:52.629Z,35.47
2022-10-17T07:31:27.573Z,32.67
2022-10-17T07:33:54.748Z,27.92
2022-10-17T07:36:21.639Z,32.60
2022-10-17T07:38:49.320Z,34.33
2022-10-17T07:41:21.662Z,31.92
2022-10-17T07:43:49.799Z,31.33
2022-10-17T07:46:20.622Z,30.13
2022-10-17T07:48:47.743Z,32.28
2022-10-17T07:51:15.483Z,34.92
2022-10-17T07:53:46.373Z,30.50
2022-10-17T07:56:15.840Z,29.95
2022-10-17T07:58:42.794Z,26.50
2022-10-17T08:01:15.533Z,27.90
2022-10-17T08:03:45.157Z,28.58
2022-10-17T08:06:12.884Z,29.45
2022-10-17T08:08:39.788Z,27.13
2022-10-17T08:11:09.943Z,26.55
2022-10-17T08:13:37.943Z,35.45
2022-10-17T08:16:09.351Z,24.70
2022-10-17T08:18:37.149Z,26.58
2022-10-17T08:21:08.371Z,26.58
2022-10-17T08:23:36.554Z,22.58
2022-10-17T08:26:06.598Z,31.63
2022-10-17T08:28:36.120Z,22.75
2022-10-17T08:31:09.418Z,27.92
2022-10-17T08:33:36.595Z,30.40
2022-10-17T08:36:05.483Z,26.42
2022-10-17T08:38:35.688Z,24.63
2022-10-17T08:41:17.981Z,29.08
2022-10-17T08:44:03.177Z,27.83
2022-10-17T08:46:34.702Z,22.40
2022-10-17T08:49:06.486Z,23.58
2022-10-17T08:51:41.313Z,24.17
2022-10-17T08:54:20.660Z,22.90
2022-10-17T08:56:51.460Z,25.13
2022-10-17T08:59:27.985Z,23.27
2022-10-17T09:02:16.244Z,27.40
2022-10-17T09:05:24.031Z,19.52
2022-10-17T09:08:22.552Z,22.00
2022-10-17T09:11:35.993Z,22.65
2022-10-17T09:14:43.301Z,25.55
2022-10-17T09:17:41.508Z,24.25
2022-10-17T09:20:26.591Z,23.80
2022-10-17T09:23:02.757Z,22.67
2022-10-17T09:25:42.791Z,29.27
2022-10-17T09:28:36.531Z,21.23
2022-10-17T09:31:22.241Z,22.08
2022-10-17T09:33:54.834Z,22.83
2022-10-17T09:36:24.873Z,30.92
2022-10-17T09:38:57.984Z,21.98
2022-10-17T09:41:56.799Z,23.27
2022-10-17T09:44:37.386Z,25.90
2022-10-17T09:47:14.266Z,20.85
2022-10-17T09:49:45.043Z,20.33
2022-10-17T09:52:36.291Z,19.77
2022-10-17T09:55:16.045Z,24.23
2022-10-17T09:58:12.339Z,20.20
2022-10-17T10:00:45.527Z,21.55
2022-10-17T10:03:24.753Z,20.40
2022-10-17T10:06:16.367Z,21.13
2022-10-17T10:09:03.366Z,18.38
2022-10-17T10:12:07.038Z,20.20
2022-10-17T10:14:39.662Z,20.88
2022-10-17T10:17:27.425Z,18.98
2022-10-17T10:19:54.824Z,21.65
2022-10-17T10:22:25.708Z,20.25
2022-10-17T10:25:15.466Z,19.27
2022-10-17T10:27:44.994Z,19.02
2022-10-17T10:30:22.898Z,18.52
2022-10-17T10:32:50.390Z,19.77
2022-10-17T10:35:28.361Z,18.15
2022-10-17T10:37:57.950Z,20.35
2022-10-17T10:40:39.335Z,16.75
2022-10-17T10:43:06.760Z,21.15
2022-10-17T10:45:47.627Z,21.88
2022-10-17T10:48:36.700Z,19.00
2022-10-17T10:51:12.882Z,23.38
2022-10-17T10:53:59.073Z,22.33
2022-10-17T10:56:37.354Z,17.08
2022-10-17T10:59:33.281Z,19.35
2022-10-17T11:02:20.378Z,21.08
2022-10-17T11:05:03.581Z,23.55
2022-10-17T11:07:36.834Z,17.98
2022-10-17T11:10:23.529Z,17.13
2022-10-17T11:13:08.619Z,22.27
2022-10-17T11:15:48.443Z,20.75
2022-10-17T11:18:30.597Z,20.52
2022-10-17T11:21:10.888Z,18.73
2022-10-17T11:23:44.655Z,23.80
2022-10-17T11:26:26.103Z,19.38
2022-10-17T11:29:13.828Z,18.08
2022-10-17T11:31:50.716Z,21.23
2022-10-17T11:34:29.682Z,25.52
2022-10-17T11:37:35.523Z,16.83
2022-10-17T11:40:14.678Z,18.33
2022-10-17T11:43:15.450Z,19.52
2022-10-17T11:45:50.152Z,23.95
2022-10-17T11:48:30.959Z,21.63
2022-10-17T11:54:15.099Z,20.77
2022-10-17T11:57:13.974Z,25.63
2022-10-17T11:59:58.010Z,17.95
2022-10-17T12:02:42.737Z,24.23
2022-10-17T12:05:41.159Z,23.20
2022-10-17T12:08:37.851Z,20.77
2022-10-17T12:11:28.283Z,19.42
2022-10-17T12:13:56.743Z,23.73
2022-10-17T12:16:23.663Z,21.08
2022-10-17T12:19:02.587Z,22.40
2022-10-17T12:21:58.080Z,21.58
2022-10-17T12:24:36.998Z,18.25
2022-10-17T12:27:33.557Z,19.52
2022-10-17T12:30:05.703Z,22.08
2022-10-17T12:32:46.930Z,19.42
2022-10-17T12:35:23.538Z,19.05
2022-10-17T12:37:57.356Z,18.67
2022-10-17T12:40:35.336Z,21.98
2022-10-17T12:43:15.037Z,22.42
2022-10-17T12:45:47.991Z,18.40
2022-10-17T12:49:00.859Z,18.67
2022-10-17T12:51:37.920Z,17.58
2022-10-17T12:54:16.374Z,17.88
2022-10-17T12:56:47.263Z,18.50
2022-10-17T12:59:29.159Z,19.55
2022-10-17T13:02:17.440Z,19.05
2022-10-17T13:04:44.375Z,20.55
2022-10-17T13:07:21.408Z,21.63
2022-10-17T13:09:49.830Z,22.33
2022-10-17T13:12:24.607Z,21.67
2022-10-17T13:14:54.267Z,22.65
2022-10-17T13:17:30.775Z,23.23
2022-10-17T13:19:58.441Z,21.42
2022-10-17T13:22:29.355Z,18.05
2022-10-17T13:25:26.801Z,20.25
2022-10-17T13:28:12.710Z,17.35
2022-10-17T13:30:39.744Z,19.95
2022-10-17T13:33:32.431Z,20.67
2022-10-17T13:36:01.412Z,21.00
2022-10-17T13:38:32.552Z,21.73
2022-10-17T13:41:22.940Z,22.40
2022-10-17T13:43:49.658Z,18.30
2022-10-17T13:46:38.883Z,18.38
2022-10-17T13:49:24.519Z,17.63
2022-10-17T13:51:55.958Z,18.67
2022-10-17T13:54:41.946Z,19.52
2022-10-17T13:57:35.309Z,20.77
2022-10-17T14:00:15.716Z,22.40
2022-10-17T14:02:43.038Z,21.48
2022-10-17T14:05:19.446Z,20.90
2022-10-17T14:08:19.005Z,21.83
2022-10-17T14:10:45.519Z,20.52
2022-10-17T14:13:28.761Z,18.60
2022-10-17T14:15:59.659Z,20.58
2022-10-17T14:18:36.470Z,18.73
2022-10-17T14:24:13.669Z,20.60
2022-10-17T14:26:59.431Z,23.05
2022-10-17T14:29:29.521Z,18.45
2022-10-17T14:32:16.231Z,24.02
2022-10-17T14:34:43.185Z,17.70
2022-10-17T14:37:44.994Z,17.08
2022-10-17T14:40:23.468Z,17.88
2022-10-17T14:42:52.378Z,19.70
2022-10-17T14:45:32.562Z,22.88
2022-10-17T14:48:15.389Z,17.85
2022-10-17T14:51:08.549Z,23.10
2022-10-17T14:53:36.133Z,24.10
2022-10-17T14:56:33.582Z,24.83
2022-10-17T14:59:02.679Z,24.60
2022-10-17T15:01:29.635Z,20.45
2022-10-17T15:06:21.441Z,22.17
2022-10-17T15:08:48.343Z,25.02
2022-10-17T15:11:15.264Z,23.17
2022-10-17T15:13:45.553Z,21.73
2022-10-17T15:16:22.750Z,24.98
2022-10-17T15:18:50.255Z,18.30
2022-10-17T15:21:33.633Z,19.70
2022-10-17T15:24:04.823Z,24.02
2022-10-17T15:26:33.808Z,25.17
2022-10-17T15:29:01.265Z,23.25
2022-10-17T15:31:31.291Z,24.70
2022-10-17T15:33:58.143Z,23.10
2022-10-17T15:36:37.077Z,21.10
2022-10-17T15:39:04.059Z,23.77
2022-10-17T15:41:32.406Z,20.88
2022-10-17T15:43:59.702Z,21.80
2022-10-17T15:46:33.506Z,24.85
2022-10-17T15:49:11.261Z,22.67
2022-10-17T15:51:38.816Z,26.67
2022-10-17T15:54:06.351Z,24.80
2022-10-17T15:56:37.460Z,22.73
2022-10-17T15:59:10.416Z,25.35
2022-10-17T16:01:38.705Z,21.38
2022-10-17T16:04:05.667Z,24.05
2022-10-17T16:06:32.540Z,21.55
2022-10-17T16:09:00.499Z,21.33
2022-10-17T16:11:35.340Z,20.27
2022-10-17T16:14:21.265Z,24.00
2022-10-17T16:16:48.070Z,30.17
2022-10-17T16:19:16.246Z,23.40
2022-10-17T16:21:43.151Z,27.45
2022-10-17T16:24:12.103Z,23.95
2022-10-17T16:26:40.083Z,27.08
2022-10-17T16:29:06.954Z,24.67
2022-10-17T16:31:36.495Z,31.15
2022-10-17T16:34:06.393Z,26.17
2022-10-17T16:36:33.776Z,34.22
2022-10-17T16:39:00.685Z,35.50
2022-10-17T16:41:39.011Z,36.47
2022-10-17T16:44:08.979Z,33.30
2022-10-17T16:46:37.663Z,33.60
2022-10-17T16:49:07.825Z,34.95
2022-10-17T16:51:35.891Z,43.72
2022-10-17T16:54:04.540Z,48.28
2022-10-17T16:56:32.820Z,50.95
2022-10-17T16:59:00.908Z,71.80
2022-10-17T17:01:31.531Z,80.78
2022-10-17T17:03:59.066Z,88.68
2022-10-17T17:06:29.113Z,82.97
2022-10-17T17:08:57.290Z,90.38
2022-10-17T17:11:27.233Z,83.35
2022-10-17T17:13:59.200Z,84.05
2022-10-17T17:16:28.605Z,76.20
2022-10-17T17:18:58.869Z,63.90
2022-10-17T17:21:27.779Z,60.40
2022-10-17T17:23:58.245Z,48.30
2022-10-17T17:26:27.472Z,39.03
2022-10-17T17:28:54.812Z,41.40
2022-10-17T17:31:25.215Z,34.80
2022-10-17T17:33:53.011Z,31.77
2022-10-17T17:36:24.611Z,34.25
2022-10-17T17:38:56.608Z,39.55
2022-10-17T17:41:24.407Z,48.20
2022-10-17T17:43:51.843Z,39.03
2022-10-17T17:46:21.085Z,40.97
2022-10-17T17:48:49.353Z,32.55
2022-10-17T17:51:19.879Z,47.33
2022-10-17T17:53:47.317Z,36.72
2022-10-17T17:56:20.570Z,39.13
2022-10-17T17:58:53.975Z,39.13
2022-10-17T18:01:23.620Z,36.90
2022-10-17T18:03:53.211Z,37.22
2022-10-17T18:06:22.106Z,41.30
2022-10-17T18:08:58.567Z,40.88
2022-10-17T18:11:28.785Z,40.15
2022-10-17T18:14:03.922Z,46.20
2022-10-17T18:16:32.598Z,34.95
2022-10-17T18:19:05.760Z,40.42
2022-10-17T18:21:34.042Z,38.42
2022-10-17T18:24:00.930Z,35.83
2022-10-17T18:26:28.559Z,38.72
2022-10-17T18:28:55.638Z,34.40
2022-10-17T18:31:26.326Z,35.00
2022-10-17T18:33:54.562Z,37.30
2022-10-17T18:36:22.633Z,32.28
2022-10-17T18:38:49.901Z,35.80
2022-10-17T18:41:23.697Z,35.83
2022-10-17T18:43:52.380Z,39.35
2022-10-17T18:46:24.458Z,32.65
2022-10-17T18:48:51.783Z,38.17
2022-10-17T18:51:22.869Z,39.40
2022-10-17T18:53:54.213Z,47.20
2022-10-17T18:56:22.276Z,41.47
2022-10-17T18:58:49.184Z,47.47
2022-10-17T19:01:24.243Z,47.97
2022-10-17T19:03:54.711Z,52.13
2022-10-17T19:06:27.303Z,50.03
2022-10-17T19:08:54.366Z,43.35
2022-10-17T19:11:28.015Z,47.40
2022-10-17T19:13:57.620Z,53.22
2022-10-17T19:16:28.643Z,53.03
2022-10-17T19:19:00.523Z,56.10
2022-10-17T19:21:27.884Z,64.20
2022-10-17T19:24:04.703Z,48.05
2022-10-17T19:26:35.246Z,45.00
2022-10-17T19:29:02.262Z,48.13
2022-10-17T19:31:31.724Z,41.70
2022-10-17T19:33:59.325Z,44.25
2022-10-17T19:36:32.516Z,40.63
2022-10-17T19:39:08.487Z,40.28
2022-10-17T19:41:36.390Z,31.83
2022-10-17T19:44:03.343Z,31.00
2022-10-17T19:46:31.818Z,31.73
2022-10-17T19:48:58.748Z,29.77
2022-10-17T19:51:26.634Z,31.20
2022-10-17T19:53:56.099Z,29.98
2022-10-17T19:56:24.888Z,26.63
2022-10-17T19:58:54.064Z,29.20
2022-10-17T20:01:24.213Z,30.48
2022-10-17T20:03:51.396Z,32.70
2022-10-17T20:06:19.055Z,29.85
2022-10-17T20:08:45.895Z,28.67
2022-10-17T20:11:16.699Z,26.27
2022-10-17T20:13:44.804Z,26.13
2022-10-17T20:16:15.511Z,28.80
2022-10-17T20:18:43.136Z,31.55
2022-10-17T20:21:14.399Z,26.45
2022-10-17T20:23:42.287Z,28.35
2022-10-17T20:26:40.078Z,26.13
2022-10-17T20:29:03.717Z,26.85
2022-10-17T20:31:31.100Z,29.33
2022-10-17T20:33:59.468Z,26.30
2022-10-17T20:36:26.812Z,29.58
2022-10-17T20:38:56.396Z,28.65
2022-10-17T20:41:24.897Z,29.20
2022-10-17T20:43:53.213Z,30.50
2022-10-17T20:46:35.959Z,25.30
2022-10-17T20:49:08.223Z,27.98
2022-10-17T20:51:35.963Z,28.85
2022-10-17T20:54:03.656Z,27.20
2022-10-17T20:56:32.757Z,25.88
2022-10-17T20:59:10.475Z,28.60
2022-10-17T21:01:37.348Z,30.55
2022-10-17T21:06:53.348Z,28.83
2022-10-17T21:09:20.907Z,28.33
2022-10-17T21:11:51.097Z,27.70
2022-10-17T21:14:18.437Z,24.45
2022-10-17T21:16:45.466Z,27.75
2022-10-17T21:19:13.035Z,28.15
2022-10-17T21:21:43.390Z,27.75
2022-10-17T21:24:14.225Z,27.60
2022-10-17T21:26:43.310Z,30.55
2022-10-17T21:29:12.087Z,30.63
2022-10-17T21:31:42.461Z,28.92
2022-10-17T21:34:17.682Z,26.88
2022-10-17T21:36:45.259Z,25.90
2022-10-17T21:39:13.543Z,25.80
2022-10-17T21:41:41.175Z,27.67
2022-10-17T21:44:20.368Z,30.30
2022-10-17T21:46:48.173Z,25.88
2022-10-17T21:49:21.124Z,30.08
2022-10-17T21:51:49.318Z,30.45
2022-10-17T21:54:17.785Z,26.20
2022-10-17T21:56:44.907Z,29.95
2022-10-17T21:59:11.926Z,24.60
2022-10-17T22:01:42.712Z,24.40
2022-10-17T22:04:16.575Z,30.67
2022-10-17T22:06:46.140Z,29.83
2022-10-17T22:09:24.141Z,31.58
2022-10-17T22:11:54.918Z,31.60
2022-10-17T22:14:24.132Z,28.67
2022-10-17T22:16:51.340Z,26.95
2022-10-17T22:19:23.698Z,25.75
2022-10-17T22:21:51.255Z,25.83
2022-10-17T22:26:48.499Z,29.98
2022-10-17T22:29:15.858Z,30.67
2022-10-17T22:31:42.936Z,28.80
2022-10-17T22:34:13.375Z,26.63
2022-10-17T22:36:40.880Z,25.85
2022-10-17T22:39:08.033Z,25.85
2022-10-17T22:41:35.041Z,25.38
2022-10-17T22:44:02.214Z,24.33
2022-10-17T22:46:29.352Z,30.55
2022-10-17T22:48:56.254Z,28.17
2022-10-17T22:53:51.201Z,28.55
2022-10-17T22:56:20.712Z,25.80
2022-10-17T22:58:47.863Z,27.92
2022-10-17T23:01:22.845Z,27.27
2022-10-17T23:03:51.187Z,25.52
2022-10-17T23:06:18.710Z,30.25
2022-10-17T23:08:45.596Z,28.70
2022-10-17T23:11:12.907Z,23.77
2022-10-17T23:13:40.855Z,33.55
2022-10-17T23:16:08.595Z,29.27
2022-10-17T23:18:36.875Z,26.15
2022-10-17T23:21:03.995Z,28.92
2022-10-17T23:23:30.886Z,29.70
2022-10-17T23:26:10.800Z,29.20
2022-10-17T23:28:38.427Z,26.42
2022-10-17T23:31:20.360Z,26.15
2022-10-17T23:33:49.095Z,27.45
2022-10-17T23:36:19.367Z,26.45
2022-10-17T23:38:47.416Z,22.80
2022-10-17T23:41:14.695Z,21.92
2022-10-17T23:43:41.609Z,29.00
2022-10-17T23:46:08.856Z,24.63
2022-10-17T23:48:35.860Z,24.67
2022-10-17T23:51:03.275Z,22.20
2022-10-17T23:53:30.943Z,22.65
2022-10-17T23:55:57.778Z,26.50
2022-10-17T23:58:24.642Z,21.48
